createdAt,value
2022-10-11T00:01:52.253Z,99842.07
2022-10-11T00:04:53.955Z,99839.57
2022-10-11T00:07:56.085Z,99842.39
2022-10-11T00:11:03.726Z,99842.04
2022-10-11T00:14:06.085Z,99844.39
2022-10-11T00:17:08.226Z,99841.11
2022-10-11T00:20:10.899Z,99841.04
2022-10-11T00:23:12.553Z,99835.92
2022-10-11T00:26:14.357Z,99839.10
2022-10-11T00:29:15.960Z,99840.97
2022-10-11T00:32:17.930Z,99844.71
2022-10-11T00:35:19.923Z,99841.88
2022-10-11T00:38:21.644Z,99837.98
2022-10-11T00:41:23.202Z,99838.56
2022-10-11T00:44:27.336Z,99836.84
2022-10-11T00:47:28.998Z,99840.88
2022-10-11T00:50:33.505Z,99835.24
2022-10-11T00:53:35.221Z,99842.48
2022-10-11T00:56:38.608Z,99842.29
2022-10-11T00:59:47.288Z,99845.22
2022-10-11T01:02:49.335Z,99843.45
2022-10-11T01:05:50.987Z,99842.94
2022-10-11T01:08:52.604Z,99845.52
2022-10-11T01:11:56.995Z,99843.87
2022-10-11T01:15:17.761Z,99842.08
2022-10-11T01:18:30.365Z,99847.28
2022-10-11T01:21:53.314Z,99849.23
2022-10-11T01:25:24.886Z,99847.70
2022-10-11T01:28:50.475Z,99847.94
2022-10-11T01:32:07.650Z,99850.55
2022-10-11T01:35:15.651Z,99850.60
2022-10-11T01:38:34.584Z,99847.23
2022-10-11T01:41:43.164Z,99844.00
2022-10-11T01:44:47.737Z,99842.91
2022-10-11T01:48:01.791Z,99837.21
2022-10-11T01:51:03.995Z,99835.95
2022-10-11T01:54:35.221Z,99835.77
2022-10-11T01:58:34.440Z,99844.56
2022-10-11T02:01:49.295Z,99851.91
2022-10-11T02:04:55.412Z,99849.05
2022-10-11T02:08:27.155Z,99850.44
2022-10-11T02:11:30.552Z,99850.29
2022-10-11T02:14:36.281Z,99843.07
2022-10-11T02:17:45.230Z,99844.94
2022-10-11T02:20:47.538Z,99846.77
2022-10-11T02:24:06.951Z,99845.13
2022-10-11T02:27:09.760Z,99847.93
2022-10-11T02:30:11.550Z,99848.33
2022-10-11T02:33:15.359Z,99847.59
2022-10-11T02:36:26.226Z,99850.23
2022-10-11T02:39:39.501Z,99854.48
2022-10-11T02:42:48.800Z,99863.02
2022-10-11T02:46:02.047Z,99861.64
2022-10-11T02:49:04.271Z,99867.34
2022-10-11T02:52:06.160Z,99866.34
2022-10-11T02:55:08.118Z,99861.11
2022-10-11T02:58:10.146Z,99863.81
2022-10-11T03:01:11.804Z,99862.77
2022-10-11T03:04:13.430Z,99868.13
2022-10-11T03:07:15.481Z,99868.80
2022-10-11T03:10:17.217Z,99872.08
2022-10-11T03:13:19.066Z,99872.84
2022-10-11T03:16:20.822Z,99873.79
2022-10-11T03:19:22.404Z,99872.73
2022-10-11T03:22:24.076Z,99874.59
2022-10-11T03:25:25.723Z,99876.58
2022-10-11T03:28:27.509Z,99877.03
2022-10-11T03:31:29.146Z,99873.18
2022-10-11T03:34:30.770Z,99879.50
2022-10-11T03:37:32.335Z,99879.68
2022-10-11T03:40:34.263Z,99878.45
2022-10-11T03:43:36.063Z,99880.48
2022-10-11T03:46:37.619Z,99881.77
2022-10-11T03:49:43.412Z,99881.36
2022-10-11T03:52:45.722Z,99879.29
2022-10-11T03:55:52.327Z,99878.51
2022-10-11T03:58:53.973Z,99876.40
2022-10-11T04:01:55.792Z,99877.31
2022-10-11T04:04:57.539Z,99876.89
2022-10-11T04:07:59.097Z,99883.43
2022-10-11T04:11:00.775Z,99883.95
2022-10-11T04:14:02.658Z,99887.83
2022-10-11T04:17:04.359Z,99889.35
2022-10-11T04:20:06.374Z,99886.13
2022-10-11T04:23:08.762Z,99882.61
2022-10-11T04:26:10.535Z,99888.23
2022-10-11T04:29:12.384Z,99890.79
2022-10-11T04:32:14.086Z,99892.02
2022-10-11T04:35:15.889Z,99888.50
2022-10-11T04:38:17.543Z,99893.96
2022-10-11T04:41:19.170Z,99897.68
2022-10-11T04:44:20.872Z,99903.99
2022-10-11T04:47:22.621Z,99904.98
2022-10-11T04:50:24.321Z,99901.04
2022-10-11T04:53:26.085Z,99902.50
2022-10-11T04:56:29.024Z,99904.86
2022-10-11T04:59:31.081Z,99904.85
2022-10-11T05:02:32.885Z,99903.35
2022-10-11T05:05:34.604Z,99907.09
2022-10-11T05:08:36.449Z,99905.89
2022-10-11T05:11:38.061Z,99906.58
2022-10-11T05:14:39.680Z,99910.92
2022-10-11T05:17:41.462Z,99912.73
2022-10-11T05:20:42.998Z,99914.02
2022-10-11T05:23:45.728Z,99917.89
2022-10-11T05:26:47.838Z,99922.20
2022-10-11T05:29:49.543Z,99925.46
2022-10-11T05:32:51.177Z,99929.55
2022-10-11T05:35:53.018Z,99933.08
2022-10-11T05:38:54.722Z,99937.56
2022-10-11T05:41:56.952Z,99944.05
2022-10-11T05:44:58.655Z,99946.52
2022-10-11T05:48:00.477Z,99954.20
2022-10-11T05:51:05.198Z,99957.05
2022-10-11T05:54:07.017Z,99961.30
2022-10-11T05:57:08.627Z,99964.96
2022-10-11T06:00:10.749Z,99968.85
2022-10-11T06:03:13.628Z,99974.73
2022-10-11T06:06:15.953Z,99980.88
2022-10-11T06:09:17.921Z,99987.31
2022-10-11T06:12:19.728Z,99990.47
2022-10-11T06:15:21.511Z,99990.33
2022-10-11T06:18:23.176Z,99995.18
2022-10-11T06:21:24.910Z,99996.65
2022-10-11T06:24:26.632Z,100001.40
2022-10-11T06:27:28.480Z,100005.61
2022-10-11T06:30:30.103Z,100006.51
2022-10-11T06:33:32.290Z,100005.42
2022-10-11T06:36:34.044Z,100007.56
2022-10-11T06:39:35.687Z,100008.44
2022-10-11T06:42:38.309Z,100012.14
2022-10-11T06:45:39.898Z,100008.96
2022-10-11T06:48:45.843Z,100016.52
2022-10-11T06:51:47.514Z,100017.58
2022-10-11T06:54:49.298Z,100014.70
2022-10-11T06:57:50.958Z,100021.25
2022-10-11T07:00:52.658Z,100021.89
2022-10-11T07:03:56.307Z,100024.02
2022-10-11T07:06:57.976Z,100027.20
2022-10-11T07:09:59.720Z,100025.44
2022-10-11T07:13:01.467Z,100028.19
2022-10-11T07:16:05.365Z,100034.59
2022-10-11T07:19:07.352Z,100039.67
2022-10-11T07:22:09.226Z,100037.75
2022-10-11T07:25:10.921Z,100040.41
2022-10-11T07:28:13.492Z,100044.39
2022-10-11T07:31:18.006Z,100048.86
2022-10-11T07:34:20.731Z,100049.27
2022-10-11T07:37:22.391Z,100061.14
2022-10-11T07:40:24.465Z,100069.30
2022-10-11T07:43:26.134Z,100075.50
2022-10-11T07:46:27.768Z,100078.23
2022-10-11T07:49:29.458Z,100080.27
2022-10-11T07:52:31.170Z,100082.61
2022-10-11T07:55:40.318Z,100087.31
2022-10-11T07:58:42.723Z,100089.47
2022-10-11T08:01:44.910Z,100086.09
2022-10-11T08:04:46.587Z,100087.39
2022-10-11T08:07:48.910Z,100087.56
2022-10-11T08:10:50.602Z,100089.36
2022-10-11T08:13:52.432Z,100094.81
2022-10-11T08:16:54.123Z,100093.09
2022-10-11T08:19:55.864Z,100096.27
2022-10-11T08:22:57.599Z,100096.17
2022-10-11T08:25:59.260Z,100101.84
2022-10-11T08:29:05.314Z,100101.90
2022-10-11T08:32:07.274Z,100099.89
2022-10-11T08:35:09.073Z,100100.80
2022-10-11T08:38:11.094Z,100106.17
2022-10-11T08:41:47.716Z,100106.28
2022-10-11T08:48:21.766Z,100112.44
2022-10-11T08:51:32.702Z,100112.55
2022-10-11T08:54:46.928Z,100114.41
2022-10-11T08:57:53.265Z,100118.85
2022-10-11T09:00:56.923Z,100114.85
2022-10-11T09:04:03.663Z,100117.81
2022-10-11T09:07:09.418Z,100112.21
2022-10-11T09:10:46.563Z,100113.73
2022-10-11T09:14:09.780Z,100114.24
2022-10-11T09:17:37.133Z,100119.86
2022-10-11T09:21:12.313Z,100116.11
2022-10-11T09:24:52.507Z,100118.88
2022-10-11T09:28:03.899Z,100120.75
2022-10-11T09:31:09.937Z,100117.61
2022-10-11T09:34:14.654Z,100118.69
2022-10-11T09:37:32.777Z,100121.42
2022-10-11T09:40:48.021Z,100121.19
2022-10-11T09:43:51.443Z,100121.52
2022-10-11T09:46:55.542Z,100122.69
2022-10-11T09:50:07.776Z,100120.33
2022-10-11T09:53:09.465Z,100119.90
2022-10-11T09:56:11.217Z,100118.25
2022-10-11T09:59:29.540Z,100124.59
2022-10-11T10:02:43.199Z,100128.71
2022-10-11T10:05:44.880Z,100134.14
2022-10-11T10:08:47.821Z,100136.00
2022-10-11T10:11:49.593Z,100135.39
2022-10-11T10:15:18.218Z,100132.56
2022-10-11T10:18:27.758Z,100130.30
2022-10-11T10:21:37.975Z,100125.30
2022-10-11T10:24:41.748Z,100125.77
2022-10-11T10:27:57.474Z,100126.30
2022-10-11T10:30:59.952Z,100130.09
2022-10-11T10:34:03.078Z,100126.89
2022-10-11T10:37:20.569Z,100129.29
2022-10-11T10:40:36.453Z,100128.04
2022-10-11T10:43:40.367Z,100130.48
2022-10-11T10:47:09.919Z,100128.05
2022-10-11T10:50:19.201Z,100121.73
2022-10-11T10:53:39.265Z,100124.06
2022-10-11T10:56:53.785Z,100125.83
2022-10-11T11:00:07.671Z,100125.10
2022-10-11T11:03:13.830Z,100128.17
2022-10-11T11:06:30.541Z,100130.08
2022-10-11T11:09:48.354Z,100130.17
2022-10-11T11:13:17.303Z,100131.82
2022-10-11T11:16:31.379Z,100130.19
2022-10-11T11:19:46.444Z,100129.92
2022-10-11T11:23:41.025Z,100126.25
2022-10-11T11:26:56.782Z,100121.06
2022-10-11T11:30:12.903Z,100121.96
2022-10-11T11:33:33.477Z,100117.52
2022-10-11T11:37:07.718Z,100118.23
2022-10-11T11:40:12.982Z,100115.64
2022-10-11T11:43:17.417Z,100114.86
2022-10-11T11:46:23.521Z,100113.09
2022-10-11T11:49:35.512Z,100108.56
2022-10-11T11:52:40.606Z,100112.66
2022-10-11T11:55:57.660Z,100107.98
2022-10-11T11:59:49.276Z,100109.39
2022-10-11T12:02:55.625Z,100109.02
2022-10-11T12:06:33.116Z,100106.60
2022-10-11T12:09:36.597Z,100104.66
2022-10-11T12:12:38.286Z,100109.14
2022-10-11T12:15:40.100Z,100108.19
2022-10-11T12:18:56.856Z,100109.16
2022-10-11T12:22:29.299Z,100112.59
2022-10-11T12:25:38.546Z,100112.20
2022-10-11T12:28:43.623Z,100112.41
2022-10-11T12:31:48.071Z,100112.00
2022-10-11T12:34:49.963Z,100111.09
2022-10-11T12:37:51.921Z,100116.81
2022-10-11T12:40:57.198Z,100120.86
2022-10-11T12:44:28.042Z,100123.48
2022-10-11T12:47:39.660Z,100121.02
2022-10-11T12:50:47.471Z,100121.55
2022-10-11T12:54:26.128Z,100124.48
2022-10-11T12:57:48.140Z,100128.86
2022-10-11T13:00:55.547Z,100132.50
2022-10-11T13:04:01.057Z,100136.00
2022-10-11T13:07:07.219Z,100138.41
2022-10-11T13:10:14.821Z,100144.73
2022-10-11T13:13:26.473Z,100148.89
2022-10-11T13:16:30.699Z,100149.81
2022-10-11T13:19:35.095Z,100152.23
2022-10-11T13:22:39.869Z,100154.16
2022-10-11T13:25:41.630Z,100162.02
2022-10-11T13:28:43.402Z,100160.42
2022-10-11T13:31:46.451Z,100162.41
2022-10-11T13:34:50.439Z,100164.85
2022-10-11T13:37:52.253Z,100162.20
2022-10-11T13:40:55.967Z,100162.98
2022-10-11T13:43:59.370Z,100162.29
2022-10-11T13:47:01.120Z,100167.55
2022-10-11T13:50:11.115Z,100169.90
2022-10-11T13:53:12.720Z,100173.38
2022-10-11T13:56:19.229Z,100173.64
2022-10-11T13:59:23.562Z,100176.08
2022-10-11T14:02:26.654Z,100177.45
2022-10-11T14:06:01.429Z,100177.94
2022-10-11T14:09:03.269Z,100177.32
2022-10-11T14:12:29.162Z,100179.00
2022-10-11T14:15:38.253Z,100183.89
2022-10-11T14:18:45.104Z,100183.77
2022-10-11T14:21:46.770Z,100185.46
2022-10-11T14:24:48.618Z,100185.96
2022-10-11T14:27:50.418Z,100190.30
2022-10-11T14:30:52.176Z,100190.00
2022-10-11T14:33:54.789Z,100192.24
2022-10-11T14:36:56.513Z,100194.41
2022-10-11T14:39:58.195Z,100197.16
2022-10-11T14:42:59.932Z,100198.02
2022-10-11T14:46:03.379Z,100199.48
2022-10-11T14:49:17.613Z,100201.57
2022-10-11T14:52:19.316Z,100201.23
2022-10-11T14:55:21.025Z,100205.08
2022-10-11T14:58:22.734Z,100205.11
2022-10-11T15:01:24.574Z,100207.24
2022-10-11T15:04:27.090Z,100206.79
2022-10-11T15:07:28.756Z,100206.38
2022-10-11T15:10:35.988Z,100209.09
2022-10-11T15:13:37.718Z,100208.00
2022-10-11T15:16:42.200Z,100209.80
2022-10-11T15:19:44.003Z,100208.22
2022-10-11T15:22:45.710Z,100213.09
2022-10-11T15:25:48.101Z,100211.78
2022-10-11T15:28:50.493Z,100213.99
2022-10-11T15:31:52.323Z,100210.55
2022-10-11T15:34:53.959Z,100215.98
2022-10-11T15:37:58.143Z,100220.30
2022-10-11T15:41:00.568Z,100222.98
2022-10-11T15:44:02.325Z,100234.54
2022-10-11T15:47:04.164Z,100235.70
2022-10-11T15:50:23.669Z,100238.29
2022-10-11T15:53:31.361Z,100240.87
2022-10-11T15:56:33.979Z,100245.81
2022-10-11T15:59:35.786Z,100247.79
2022-10-11T16:02:37.481Z,100251.64
2022-10-11T16:05:40.032Z,100256.93
2022-10-11T16:08:41.736Z,100258.66
2022-10-11T16:11:43.747Z,100261.50
2022-10-11T16:14:47.322Z,100266.04
2022-10-11T16:17:49.471Z,100268.34
2022-10-11T16:20:52.540Z,100270.89
2022-10-11T16:23:54.275Z,100276.89
2022-10-11T16:26:55.949Z,100284.17
2022-10-11T16:29:58.036Z,100286.55
2022-10-11T16:32:59.797Z,100286.64
2022-10-11T16:36:26.079Z,100291.48
2022-10-11T16:39:27.890Z,100292.91
2022-10-11T16:42:29.594Z,100296.37
2022-10-11T16:45:33.000Z,100295.02
2022-10-11T16:48:34.639Z,100299.17
2022-10-11T16:51:36.269Z,100302.23
2022-10-11T16:54:38.323Z,100301.98
2022-10-11T16:57:40.067Z,100308.35
2022-10-11T17:00:42.412Z,100312.01
2022-10-11T17:03:44.169Z,100315.09
2022-10-11T17:06:45.982Z,100314.01
2022-10-11T17:09:49.093Z,100317.87
2022-10-11T17:12:50.841Z,100318.19
2022-10-11T17:15:52.602Z,100319.56
2022-10-11T17:18:54.376Z,100318.58
2022-10-11T17:21:56.012Z,100319.73
2022-10-11T17:24:57.901Z,100322.77
2022-10-11T17:27:59.620Z,100328.34
2022-10-11T17:31:01.795Z,100329.92
2022-10-11T17:34:03.547Z,100333.96
2022-10-11T17:37:06.177Z,100334.47
2022-10-11T17:40:09.130Z,100335.96
2022-10-11T17:43:11.415Z,100340.90
2022-10-11T17:46:15.348Z,100340.83
2022-10-11T17:49:17.230Z,100343.55
2022-10-11T17:52:19.178Z,100343.26
2022-10-11T17:55:20.994Z,100345.02
2022-10-11T17:58:22.806Z,100352.61
2022-10-11T18:01:27.252Z,100357.82
2022-10-11T18:04:30.237Z,100361.74
2022-10-11T18:07:33.010Z,100362.81
2022-10-11T18:10:38.185Z,100365.30
2022-10-11T18:13:42.972Z,100368.16
2022-10-11T18:16:44.937Z,100367.15
2022-10-11T18:19:46.777Z,100368.25
2022-10-11T18:22:49.667Z,100371.30
2022-10-11T18:25:51.473Z,100375.49
2022-10-11T18:28:55.008Z,100379.77
2022-10-11T18:31:57.108Z,100379.25
2022-10-11T18:34:59.916Z,100381.10
2022-10-11T18:38:01.763Z,100380.06
2022-10-11T18:41:08.813Z,100381.18
2022-10-11T18:44:14.309Z,100378.33
2022-10-11T18:47:16.082Z,100378.22
2022-10-11T18:50:18.487Z,100381.52
2022-10-11T18:53:20.212Z,100385.37
2022-10-11T18:56:23.177Z,100386.42
2022-10-11T18:59:24.966Z,100386.37
2022-10-11T19:02:26.743Z,100388.11
2022-10-11T19:05:28.493Z,100385.59
2022-10-11T19:08:30.219Z,100388.33
2022-10-11T19:11:32.297Z,100393.65
2022-10-11T19:14:34.219Z,100394.30
2022-10-11T19:17:35.958Z,100397.93
2022-10-11T19:20:37.767Z,100396.07
2022-10-11T19:23:42.251Z,100398.75
2022-10-11T19:26:45.146Z,100398.27
2022-10-11T19:29:47.028Z,100402.55
2022-10-11T19:32:48.909Z,100406.29
2022-10-11T19:35:57.320Z,100407.46
2022-10-11T19:38:59.906Z,100407.77
2022-10-11T19:42:01.859Z,100413.64
2022-10-11T19:45:05.242Z,100407.60
2022-10-11T19:48:10.208Z,100411.29
2022-10-11T19:51:14.078Z,100409.20
2022-10-11T19:54:20.354Z,100411.20
2022-10-11T19:57:22.140Z,100412.45
2022-10-11T20:00:24.387Z,100414.91
2022-10-11T20:03:26.356Z,100416.77
2022-10-11T20:06:29.057Z,100421.40
2022-10-11T20:09:32.299Z,100420.20
2022-10-11T20:12:40.235Z,100415.98
2022-10-11T20:15:44.293Z,100417.40
2022-10-11T20:18:46.402Z,100414.48
2022-10-11T20:21:49.189Z,100416.77
2022-10-11T20:24:52.614Z,100419.41
2022-10-11T20:27:54.415Z,100422.53
2022-10-11T20:30:56.461Z,100421.55
2022-10-11T20:34:01.834Z,100422.96
2022-10-11T20:37:03.590Z,100425.88
2022-10-11T20:40:05.743Z,100425.35
2022-10-11T20:43:07.599Z,100424.70
2022-10-11T20:46:11.514Z,100429.39
2022-10-11T20:49:13.510Z,100431.61
2022-10-11T20:52:15.219Z,100427.10
2022-10-11T20:55:16.924Z,100428.60
2022-10-11T20:58:19.026Z,100430.32
2022-10-11T21:01:24.042Z,100433.84
2022-10-11T21:04:25.873Z,100433.84
2022-10-11T21:07:27.613Z,100431.10
2022-10-11T21:10:32.169Z,100433.38
2022-10-11T21:13:34.247Z,100433.75
2022-10-11T21:16:36.859Z,100435.89
2022-10-11T21:19:38.702Z,100436.36
2022-10-11T21:22:40.490Z,100435.54
2022-10-11T21:25:42.313Z,100433.20
2022-10-11T21:28:45.392Z,100433.88
2022-10-11T21:31:47.228Z,100437.66
2022-10-11T21:34:48.943Z,100433.10
2022-10-11T21:37:50.630Z,100435.30
2022-10-11T21:40:52.708Z,100433.89
2022-10-11T21:43:54.772Z,100437.16
2022-10-11T21:47:12.021Z,100436.30
2022-10-11T21:50:14.115Z,100440.00
2022-10-11T21:53:15.875Z,100437.72
2022-10-11T21:56:18.226Z,100439.75
2022-10-11T21:59:19.975Z,100440.91
2022-10-11T22:02:21.699Z,100436.63
2022-10-11T22:05:24.435Z,100436.17
2022-10-11T22:08:26.313Z,100439.19
2022-10-11T22:11:28.066Z,100441.74
2022-10-11T22:14:29.890Z,100444.06
2022-10-11T22:17:31.678Z,100441.45
2022-10-11T22:20:33.518Z,100437.66
2022-10-11T22:23:35.901Z,100441.73
2022-10-11T22:26:37.809Z,100440.52
2022-10-11T22:29:39.604Z,100437.30
2022-10-11T22:32:42.109Z,100441.75
2022-10-11T22:35:44.446Z,100445.67
2022-10-11T22:38:46.680Z,100444.95
2022-10-11T22:41:48.659Z,100448.98
2022-10-11T22:44:50.901Z,100446.77
2022-10-11T22:47:52.635Z,100445.78
2022-10-11T22:50:54.821Z,100447.27
2022-10-11T22:53:56.594Z,100446.54
2022-10-11T22:56:58.385Z,100445.24
2022-10-11T23:00:00.247Z,100445.39
2022-10-11T23:03:02.104Z,100447.72
2022-10-11T23:06:23.766Z,100447.31
2022-10-11T23:09:40.997Z,100445.09
2022-10-11T23:12:43.810Z,100443.23
2022-10-11T23:15:45.862Z,100442.91
2022-10-11T23:18:47.922Z,100446.27
2022-10-11T23:21:49.683Z,100445.43
2022-10-11T23:24:51.674Z,100445.88
2022-10-11T23:27:53.352Z,100444.29
2022-10-11T23:31:06.265Z,100449.59
2022-10-11T23:34:07.972Z,100447.63
2022-10-11T23:37:09.615Z,100453.37
2022-10-11T23:40:11.546Z,100449.39
2022-10-11T23:43:13.841Z,100450.92
2022-10-11T23:46:15.541Z,100457.52
2022-10-11T23:49:17.431Z,100459.08
2022-10-11T23:52:19.223Z,100460.78
2022-10-11T23:55:21.457Z,100462.86
2022-10-11T23:58:23.289Z,100457.14
